BIENTÔT MET'MAP
version 2.0 !

Prévue avant fin octobre,
la nouvelle version sera
plus belle, plus complète
et hébergée sur un serveur
3 fois plus puissant...
et toujours gratuite !


Pas compatible ?
Essayez la version Mobile !

SE CONNECTER : | S'inscrire | Disclaimer | Découvrir Orbifly |
Code OACI :

TAF - EDGS Siegerland Airport - 25 Feb 2020 17:26 UTC
Data Sources :     NOAA   


- Altitude de l'aérodrome : 1966 ft
- Code IATA : SGE
- Pas de NOTAMs connus.


EDGS - Siegerland Airport

Dernier METAR connu : 2015/08/11 07:50 EDGS 110750Z 32005KT 0250 R31/P2000D FG SCT002 BKN003 16/16 Q1019
TAF TAF EDGS
Valide du 25 à 15h jusqu'au 26 à 00h UTC


251400Z 2515/2524 25012KT 9999 BKN020
TEMPO 2515/2524 24015G25KT
TEMPO 2517/2521 4000 SHRA BKN012CB
PROB30
TEMPO 2518/2524 24020G35KT 1000 TSSNGS BKN004CB
TEMPO 2521/2524 2000 SHSNRA BKN007CB

Source NOAA


MET'MAP, la Météo Aéronautique d'un coup d'oeil ! - Copyright ORBIFLY Décembre 2007

Développement & Programmation : Alexandra Zaïnal
Co-Développement : Marc-Olivier Méhu
Soutien technique & logistique : Manuel Goepfert
Conception & Financement : Baudouin d'Aumeries